UAE29 YSSY-OMDB
Flight info
| Callsign | UAE29 |
|---|---|
| Flight time | N/A |
| Altitude | 34000 |
| Route | KADOM A576 AS A587 DOPUK/N0499F360 A587 ONOXA G326 BLI M635 TAVIP/N0493F380 M635 JUNHA DCT IRTAD A464 SJ G579 VJB Y342 AROSO Y513 KALIL Y504 BILIK G582 PUGER P574 ELSAR/N0485F400 P574 PAROK Q899 ITURA M762 VAXAS/N0477F240 M762 MIVEK P574 IMPED |
| Aircraft | A359/H-SDE2E3GHIJ3J4J5LM1ORWXY/LB1D1 |
Departure
| Time | 2026-04-20 02:07 |
|---|---|
| Airport | Sydney Kingsford Smith International Airport (YSSY) |
Arrival
| Time | N/A |
|---|---|
| Airport | Dubai International Airport (OMDB) |
| Time | Latitude | Longitude | Altitude | Speed | Heading |
|---|---|---|---|---|---|
| 2026-04-20 01:34 | -33.93477 | 151.16798 | 36 ft | 0 kts | 258° |
| 2026-04-20 01:35 | -33.93480 | 151.16787 | 36 ft | 0 kts | 258° |
| 2026-04-20 01:57 | -33.93479 | 151.16792 | 36 ft | 3 kts | 259° |
| 2026-04-20 01:57 | -33.93477 | 151.16824 | 36 ft | 4 kts | 275° |
| 2026-04-20 01:57 | -33.93480 | 151.16856 | 36 ft | 4 kts | 276° |
| 2026-04-20 01:58 | -33.93478 | 151.16882 | 36 ft | 3 kts | 236° |
| 2026-04-20 01:58 | -33.93461 | 151.16902 | 36 ft | 4 kts | 197° |
| 2026-04-20 01:58 | -33.93435 | 151.16904 | 36 ft | 3 kts | 167° |
| 2026-04-20 01:58 | -33.93443 | 151.16906 | 36 ft | 3 kts | 167° |
| 2026-04-20 01:59 | -33.93445 | 151.16907 | 36 ft | 0 kts | 167° |
| 2026-04-20 02:03 | -33.93447 | 151.16908 | 36 ft | 1 kts | 167° |
| 2026-04-20 02:03 | -33.93468 | 151.16915 | 36 ft | 5 kts | 159° |
| 2026-04-20 02:03 | -33.93501 | 151.16956 | 36 ft | 9 kts | 115° |
| 2026-04-20 02:03 | -33.93496 | 151.17037 | 36 ft | 11 kts | 70° |
| 2026-04-20 02:04 | -33.93428 | 151.17083 | 36 ft | 13 kts | 353° |
| 2026-04-20 02:04 | -33.93331 | 151.17046 | 36 ft | 16 kts | 331° |
| 2026-04-20 02:04 | -33.93234 | 151.16965 | 36 ft | 18 kts | 339° |
| 2026-04-20 02:04 | -33.93104 | 151.16924 | 36 ft | 21 kts | 347° |
| 2026-04-20 02:05 | -33.93002 | 151.16937 | 36 ft | 14 kts | 42° |
| 2026-04-20 02:05 | -33.92971 | 151.17025 | 37 ft | 0 kts | 77° |
| 2026-04-20 02:05 | -33.92969 | 151.17036 | 37 ft | 4 kts | 77° |
| 2026-04-20 02:06 | -33.92961 | 151.17097 | 37 ft | 11 kts | 91° |
| 2026-04-20 02:06 | -33.93018 | 151.17173 | 37 ft | 15 kts | 151° |
| 2026-04-20 02:06 | -33.93051 | 151.17187 | 37 ft | 0 kts | 166° |
| 2026-04-20 02:06 | -33.93166 | 151.17218 | 37 ft | 54 kts | 168° |
| 2026-04-20 02:07 | -33.93793 | 151.17375 | 33 ft | 128 kts | 168° |
| 2026-04-20 02:07 | -33.94828 | 151.17661 | 249 ft | 167 kts | 168° |
| 2026-04-20 02:07 | -33.95926 | 151.17947 | 1239 ft | 158 kts | 171° |
| 2026-04-20 02:07 | -33.97072 | 151.17953 | 1816 ft | 173 kts | 186° |
| 2026-04-20 02:08 | -33.98336 | 151.17812 | 2103 ft | 192 kts | 186° |
| 2026-04-20 02:08 | -33.99724 | 151.17686 | 2459 ft | 210 kts | 184° |
| 2026-04-20 02:08 | -34.01269 | 151.17592 | 2743 ft | 233 kts | 183° |
| 2026-04-20 02:08 | -34.02922 | 151.17652 | 3362 ft | 241 kts | 171° |
| 2026-04-20 02:09 | -34.04555 | 151.18105 | 4132 ft | 242 kts | 166° |
| 2026-04-20 02:09 | -34.06165 | 151.18646 | 4818 ft | 246 kts | 166° |
| 2026-04-20 02:09 | -34.07826 | 151.19206 | 5492 ft | 250 kts | 165° |
| 2026-04-20 02:09 | -34.09505 | 151.19772 | 6186 ft | 252 kts | 166° |
| 2026-04-20 02:10 | -34.11211 | 151.20346 | 6884 ft | 255 kts | 165° |
| 2026-04-20 02:10 | -34.12925 | 151.20924 | 7588 ft | 257 kts | 166° |
| 2026-04-20 02:10 | -34.14658 | 151.21500 | 8275 ft | 260 kts | 166° |
| 2026-04-20 02:10 | -34.16409 | 151.22079 | 8957 ft | 262 kts | 166° |
| 2026-04-20 02:11 | -34.18204 | 151.22438 | 9594 ft | 263 kts | 179° |
| 2026-04-20 02:11 | -34.20018 | 151.22131 | 10215 ft | 267 kts | 197° |
| 2026-04-20 02:11 | -34.21678 | 151.21066 | 10513 ft | 285 kts | 217° |
| 2026-04-20 02:11 | -34.23095 | 151.19318 | 10973 ft | 295 kts | 226° |
| 2026-04-20 02:12 | -34.24379 | 151.17354 | 11593 ft | 301 kts | 233° |
| 2026-04-20 02:12 | -34.25246 | 151.15030 | 12220 ft | 309 kts | 252° |
| 2026-04-20 02:12 | -34.25364 | 151.12403 | 12796 ft | 321 kts | 274° |
| 2026-04-20 02:12 | -34.24884 | 151.09739 | 13380 ft | 328 kts | 281° |
| 2026-04-20 02:13 | -34.23998 | 151.07169 | 13960 ft | 337 kts | 297° |
| 2026-04-20 02:13 | -34.22391 | 151.05062 | 14504 ft | 349 kts | 321° |
| 2026-04-20 02:13 | -34.20188 | 151.03852 | 15058 ft | 358 kts | 344° |
| 2026-04-20 02:13 | -34.17729 | 151.03229 | 15625 ft | 363 kts | 348° |
| 2026-04-20 02:14 | -34.15227 | 151.02690 | 16164 ft | 367 kts | 348° |
| 2026-04-20 02:14 | -34.12707 | 151.02140 | 16715 ft | 370 kts | 348° |
| 2026-04-20 02:14 | -34.10174 | 151.01553 | 17265 ft | 372 kts | 345° |
| 2026-04-20 02:14 | -34.07667 | 151.00749 | 17811 ft | 373 kts | 341° |
| 2026-04-20 02:15 | -34.05160 | 150.99876 | 18288 ft | 377 kts | 341° |
| 2026-04-20 02:15 | -34.02647 | 150.98929 | 18779 ft | 379 kts | 336° |
| 2026-04-20 02:15 | -34.00332 | 150.97522 | 19260 ft | 377 kts | 322° |
| 2026-04-20 02:15 | -33.98339 | 150.95497 | 19675 ft | 376 kts | 309° |
| 2026-04-20 02:16 | -33.96761 | 150.92972 | 19888 ft | 380 kts | 295° |
| 2026-04-20 02:16 | -33.95535 | 150.90121 | 20075 ft | 388 kts | 291° |
| 2026-04-20 02:16 | -33.94364 | 150.87152 | 20253 ft | 397 kts | 291° |
| 2026-04-20 02:16 | -33.93160 | 150.84110 | 20417 ft | 407 kts | 291° |
| 2026-04-20 02:17 | -33.91922 | 150.81018 | 20694 ft | 412 kts | 291° |
| 2026-04-20 02:17 | -33.90664 | 150.77897 | 21039 ft | 416 kts | 291° |
| 2026-04-20 02:17 | -33.89395 | 150.74764 | 21392 ft | 419 kts | 291° |
| 2026-04-20 02:17 | -33.88111 | 150.71602 | 21744 ft | 421 kts | 291° |
| 2026-04-20 02:18 | -33.86838 | 150.68475 | 22089 ft | 423 kts | 291° |
| 2026-04-20 02:18 | -33.85540 | 150.65283 | 22425 ft | 426 kts | 292° |
| 2026-04-20 02:18 | -33.84232 | 150.62073 | 22737 ft | 428 kts | 291° |
| 2026-04-20 02:18 | -33.82918 | 150.58849 | 23073 ft | 430 kts | 291° |
| 2026-04-20 02:19 | -33.81598 | 150.55614 | 23399 ft | 432 kts | 292° |
| 2026-04-20 02:19 | -33.80273 | 150.52370 | 23722 ft | 435 kts | 291° |
| 2026-04-20 02:19 | -33.78932 | 150.49093 | 24030 ft | 437 kts | 292° |